sensor_id;sensor_type;location;lat;lon;timestamp;P1;durP1;ratioP1;P2;durP2;ratioP2
45314;SDS011;31051;51.540;5.852;2023-07-31T00:01:50;14.0;;;7.5;;
45314;SDS011;31051;51.540;5.852;2023-07-31T00:14:49;16.8;;;7.7;;
45314;SDS011;31051;51.540;5.852;2023-07-31T00:27:38;15.8;;;7.4;;
45314;SDS011;31051;51.540;5.852;2023-07-31T00:40:37;13.9;;;6.5;;
45314;SDS011;31051;51.540;5.852;2023-07-31T00:53:37;13.2;;;6.1;;
45314;SDS011;31051;51.540;5.852;2023-07-31T01:06:36;14.2;;;5.9;;
45314;SDS011;31051;51.540;5.852;2023-07-31T01:19:36;11.7;;;5.5;;
45314;SDS011;31051;51.540;5.852;2023-07-31T01:32:35;11.4;;;5.2;;
45314;SDS011;31051;51.540;5.852;2023-07-31T01:45:34;10.6;;;5.1;;
45314;SDS011;31051;51.540;5.852;2023-07-31T01:58:34;11.5;;;5.4;;
45314;SDS011;31051;51.540;5.852;2023-07-31T02:11:32;12.1;;;5.6;;
45314;SDS011;31051;51.540;5.852;2023-07-31T02:24:21;13.1;;;5.7;;
45314;SDS011;31051;51.540;5.852;2023-07-31T02:37:21;11.5;;;5.6;;
45314;SDS011;31051;51.540;5.852;2023-07-31T02:50:20;11.7;;;5.8;;
45314;SDS011;31051;51.540;5.852;2023-07-31T03:03:19;12.6;;;5.7;;
45314;SDS011;31051;51.540;5.852;2023-07-31T03:16:19;13.2;;;5.7;;
45314;SDS011;31051;51.540;5.852;2023-07-31T03:29:17;13.1;;;5.6;;
45314;SDS011;31051;51.540;5.852;2023-07-31T03:42:06;11.9;;;5.6;;
45314;SDS011;31051;51.540;5.852;2023-07-31T03:55:06;12.5;;;5.6;;
45314;SDS011;31051;51.540;5.852;2023-07-31T04:08:05;11.9;;;5.3;;
45314;SDS011;31051;51.540;5.852;2023-07-31T04:21:05;12.2;;;5.4;;
45314;SDS011;31051;51.540;5.852;2023-07-31T04:34:04;12.2;;;5.4;;
45314;SDS011;31051;51.540;5.852;2023-07-31T04:47:03;13.6;;;5.3;;
45314;SDS011;31051;51.540;5.852;2023-07-31T05:00:02;10.3;;;5.3;;
45314;SDS011;31051;51.540;5.852;2023-07-31T05:25:39;9.8;;;4.9;;
45314;SDS011;31051;51.540;5.852;2023-07-31T05:38:39;9.3;;;4.9;;
45314;SDS011;31051;51.540;5.852;2023-07-31T05:51:38;8.5;;;4.6;;
45314;SDS011;31051;51.540;5.852;2023-07-31T06:04:37;7.1;;;4.4;;
45314;SDS011;31051;51.540;5.852;2023-07-31T06:17:37;6.6;;;4.8;;
45314;SDS011;31051;51.540;5.852;2023-07-31T06:30:36;7.0;;;4.8;;
45314;SDS011;31051;51.540;5.852;2023-07-31T06:43:35;5.6;;;4.4;;
45314;SDS011;31051;51.540;5.852;2023-07-31T06:56:35;6.4;;;4.5;;
45314;SDS011;31051;51.540;5.852;2023-07-31T07:09:34;5.1;;;4.2;;
45314;SDS011;31051;51.540;5.852;2023-07-31T07:22:34;5.2;;;4.0;;
45314;SDS011;31051;51.540;5.852;2023-07-31T07:35:33;5.4;;;3.9;;
45314;SDS011;31051;51.540;5.852;2023-07-31T07:48:32;3.9;;;3.3;;
45314;SDS011;31051;51.540;5.852;2023-07-31T08:01:32;4.4;;;3.4;;
45314;SDS011;31051;51.540;5.852;2023-07-31T08:14:31;4.3;;;3.4;;
45314;SDS011;31051;51.540;5.852;2023-07-31T08:27:31;5.0;;;4.0;;
45314;SDS011;31051;51.540;5.852;2023-07-31T08:40:30;6.1;;;4.7;;
45314;SDS011;31051;51.540;5.852;2023-07-31T08:53:29;5.5;;;4.2;;
45314;SDS011;31051;51.540;5.852;2023-07-31T09:06:28;6.3;;;4.7;;
45314;SDS011;31051;51.540;5.852;2023-07-31T09:19:17;6.4;;;4.8;;
45314;SDS011;31051;51.540;5.852;2023-07-31T09:45:16;6.4;;;4.6;;
45314;SDS011;31051;51.540;5.852;2023-07-31T09:58:15;6.1;;;4.5;;
45314;SDS011;31051;51.540;5.852;2023-07-31T10:11:14;5.8;;;4.2;;
45314;SDS011;31051;51.540;5.852;2023-07-31T10:24:14;5.7;;;4.1;;
45314;SDS011;31051;51.540;5.852;2023-07-31T10:37:13;5.7;;;4.0;;
45314;SDS011;31051;51.540;5.852;2023-07-31T10:50:13;4.9;;;3.6;;
45314;SDS011;31051;51.540;5.852;2023-07-31T11:03:12;5.2;;;3.6;;
45314;SDS011;31051;51.540;5.852;2023-07-31T11:16:11;4.9;;;3.3;;
45314;SDS011;31051;51.540;5.852;2023-07-31T11:29:10;5.0;;;3.5;;
45314;SDS011;31051;51.540;5.852;2023-07-31T11:41:59;5.9;;;3.6;;
45314;SDS011;31051;51.540;5.852;2023-07-31T11:54:58;5.3;;;3.3;;
45314;SDS011;31051;51.540;5.852;2023-07-31T12:07:57;4.4;;;3.3;;
45314;SDS011;31051;51.540;5.852;2023-07-31T12:20:46;4.2;;;2.8;;
45314;SDS011;31051;51.540;5.852;2023-07-31T12:33:46;4.2;;;3.6;;
45314;SDS011;31051;51.540;5.852;2023-07-31T12:46:44;4.8;;;3.6;;
45314;SDS011;31051;51.540;5.852;2023-07-31T12:59:32;5.7;;;3.8;;
45314;SDS011;31051;51.540;5.852;2023-07-31T13:12:21;6.5;;;3.8;;
45314;SDS011;31051;51.540;5.852;2023-07-31T13:25:10;6.8;;;4.2;;
45314;SDS011;31051;51.540;5.852;2023-07-31T13:38:09;6.7;;;4.3;;
45314;SDS011;31051;51.540;5.852;2023-07-31T13:51:08;7.3;;;4.5;;
45314;SDS011;31051;51.540;5.852;2023-07-31T14:03:57;7.7;;;4.6;;
45314;SDS011;31051;51.540;5.852;2023-07-31T14:16:57;7.7;;;5.1;;
45314;SDS011;31051;51.540;5.852;2023-07-31T14:29:56;9.2;;;6.4;;
45314;SDS011;31051;51.540;5.852;2023-07-31T14:42:55;9.0;;;6.1;;
45314;SDS011;31051;51.540;5.852;2023-07-31T14:55:55;9.0;;;5.7;;
45314;SDS011;31051;51.540;5.852;2023-07-31T15:08:53;7.4;;;5.3;;
45314;SDS011;31051;51.540;5.852;2023-07-31T15:21:42;7.1;;;5.0;;
45314;SDS011;31051;51.540;5.852;2023-07-31T15:34:42;7.8;;;5.0;;
45314;SDS011;31051;51.540;5.852;2023-07-31T15:47:41;7.9;;;5.3;;
45314;SDS011;31051;51.540;5.852;2023-07-31T16:00:41;6.6;;;4.6;;
45314;SDS011;31051;51.540;5.852;2023-07-31T16:13:39;4.8;;;3.4;;
45314;SDS011;31051;51.540;5.852;2023-07-31T16:26:28;4.3;;;2.9;;
45314;SDS011;31051;51.540;5.852;2023-07-31T16:39:27;2.8;;;2.0;;
45314;SDS011;31051;51.540;5.852;2023-07-31T16:52:16;3.0;;;2.0;;
45314;SDS011;31051;51.540;5.852;2023-07-31T17:05:14;2.6;;;1.8;;
45314;SDS011;31051;51.540;5.852;2023-07-31T17:18:03;2.2;;;1.6;;
45314;SDS011;31051;51.540;5.852;2023-07-31T17:30:52;2.0;;;1.4;;
45314;SDS011;31051;51.540;5.852;2023-07-31T17:43:51;2.0;;;1.5;;
45314;SDS011;31051;51.540;5.852;2023-07-31T17:56:51;2.0;;;1.6;;
45314;SDS011;31051;51.540;5.852;2023-07-31T18:09:49;2.2;;;1.5;;
45314;SDS011;31051;51.540;5.852;2023-07-31T18:22:38;1.8;;;1.5;;
45314;SDS011;31051;51.540;5.852;2023-07-31T18:35:38;2.6;;;1.3;;
45314;SDS011;31051;51.540;5.852;2023-07-31T18:48:37;1.8;;;1.3;;
45314;SDS011;31051;51.540;5.852;2023-07-31T19:01:36;1.7;;;1.4;;
45314;SDS011;31051;51.540;5.852;2023-07-31T19:14:25;2.2;;;1.6;;
45314;SDS011;31051;51.540;5.852;2023-07-31T19:27:24;1.4;;;1.1;;
45314;SDS011;31051;51.540;5.852;2023-07-31T19:40:24;2.0;;;1.0;;
45314;SDS011;31051;51.540;5.852;2023-07-31T19:53:23;1.6;;;0.9;;
45314;SDS011;31051;51.540;5.852;2023-07-31T20:06:22;1.6;;;0.8;;
45314;SDS011;31051;51.540;5.852;2023-07-31T20:19:22;1.3;;;0.8;;
45314;SDS011;31051;51.540;5.852;2023-07-31T20:32:21;1.2;;;0.6;;
45314;SDS011;31051;51.540;5.852;2023-07-31T20:45:21;1.7;;;1.1;;
45314;SDS011;31051;51.540;5.852;2023-07-31T21:11:07;2.1;;;1.5;;
45314;SDS011;31051;51.540;5.852;2023-07-31T21:23:57;1.9;;;1.6;;
45314;SDS011;31051;51.540;5.852;2023-07-31T21:36:56;2.6;;;2.1;;
45314;SDS011;31051;51.540;5.852;2023-07-31T21:49:55;2.5;;;2.1;;
45314;SDS011;31051;51.540;5.852;2023-07-31T22:02:54;3.3;;;2.6;;
45314;SDS011;31051;51.540;5.852;2023-07-31T22:15:43;3.7;;;3.0;;
45314;SDS011;31051;51.540;5.852;2023-07-31T22:28:42;3.6;;;3.3;;
45314;SDS011;31051;51.540;5.852;2023-07-31T22:41:42;3.6;;;3.2;;
45314;SDS011;31051;51.540;5.852;2023-07-31T22:54:41;3.5;;;3.2;;
45314;SDS011;31051;51.540;5.852;2023-07-31T23:07:40;3.5;;;3.2;;
45314;SDS011;31051;51.540;5.852;2023-07-31T23:20:40;4.0;;;3.4;;
45314;SDS011;31051;51.540;5.852;2023-07-31T23:33:39;4.4;;;4.0;;
45314;SDS011;31051;51.540;5.852;2023-07-31T23:46:39;3.6;;;3.2;;
45314;SDS011;31051;51.540;5.852;2023-07-31T23:59:37;3.2;;;2.9;;
